Hinigaran, Philippines
Current Conditions -  °F | °C
As of 3:00 PM on Saturday 25 Oct 2014 (Local Time) from RPVM Reporting Station
Scattered Clouds Scattered Clouds  
Wind Chill: 88°   Ceiling: Unl
Heat Index: 98°   Visibility: 6mi
Dew Point: 75°   Wind: 10mph
Humidity: 66%   Direction: 20°NNE
Pressure: 29.83"   Gusts: NA
Location:  10.27°N, 122.85°E
Report Text: RPVM 250700Z 02009KT 9999 FEW018CB SCT300 31/24 Q1010 RMK A2983 CB S THRU SW AND NW
Loading
Personal Weather Stations






























Interactive Weather Map
Tropical Storm Tracking
New forecast layout! Learn more

10-Day Weather Forecast

Advertisements
Track Severe Weather on mobile